sensor_id;sensor_type;location;lat;lon;timestamp;pressure;altitude;pressure_sealevel;temperature;humidity
7200;BME280;3641;49.082;8.200;2022-08-20T00:00:50;100208.16;;;21.34;60.74
7200;BME280;3641;49.082;8.200;2022-08-20T00:03:20;100207.28;;;21.51;59.26
7200;BME280;3641;49.082;8.200;2022-08-20T00:05:53;100211.13;;;21.28;60.98
7200;BME280;3641;49.082;8.200;2022-08-20T00:08:20;100207.66;;;21.15;61.20
7200;BME280;3641;49.082;8.200;2022-08-20T00:10:50;100213.19;;;20.93;64.23
7200;BME280;3641;49.082;8.200;2022-08-20T00:13:20;100211.34;;;21.21;60.33
7200;BME280;3641;49.082;8.200;2022-08-20T00:15:47;100196.75;;;21.31;59.87
7200;BME280;3641;49.082;8.200;2022-08-20T00:18:13;100197.56;;;21.31;60.64
7200;BME280;3641;49.082;8.200;2022-08-20T00:20:42;100201.78;;;21.34;59.58
7200;BME280;3641;49.082;8.200;2022-08-20T00:23:10;100205.38;;;21.34;60.00
7200;BME280;3641;49.082;8.200;2022-08-20T00:25:37;100204.28;;;21.35;59.89
7200;BME280;3641;49.082;8.200;2022-08-20T00:28:05;100210.06;;;21.07;64.36
7200;BME280;3641;49.082;8.200;2022-08-20T00:30:33;100212.78;;;21.01;64.36
7200;BME280;3641;49.082;8.200;2022-08-20T00:33:03;100212.63;;;20.91;62.04
7200;BME280;3641;49.082;8.200;2022-08-20T00:35:33;100214.09;;;20.60;64.76
7200;BME280;3641;49.082;8.200;2022-08-20T00:38:00;100212.84;;;21.07;60.82
7200;BME280;3641;49.082;8.200;2022-08-20T00:40:31;100223.94;;;20.84;65.58
7200;BME280;3641;49.082;8.200;2022-08-20T00:43:00;100225.75;;;20.57;66.94
7200;BME280;3641;49.082;8.200;2022-08-20T00:45:29;100225.25;;;20.26;68.39
7200;BME280;3641;49.082;8.200;2022-08-20T00:47:56;100222.03;;;20.34;68.66
7200;BME280;3641;49.082;8.200;2022-08-20T00:50:27;100216.06;;;20.76;62.43
7200;BME280;3641;49.082;8.200;2022-08-20T00:52:56;100214.91;;;20.94;61.63
7200;BME280;3641;49.082;8.200;2022-08-20T00:55:24;100217.88;;;20.88;61.79
7200;BME280;3641;49.082;8.200;2022-08-20T00:57:55;100222.31;;;21.11;61.37
7200;BME280;3641;49.082;8.200;2022-08-20T01:00:26;100228.00;;;20.99;65.41
7200;BME280;3641;49.082;8.200;2022-08-20T01:02:54;100231.75;;;20.88;62.30
7200;BME280;3641;49.082;8.200;2022-08-20T01:05:21;100229.88;;;21.15;61.02
7200;BME280;3641;49.082;8.200;2022-08-20T01:07:49;100238.09;;;20.49;67.36
7200;BME280;3641;49.082;8.200;2022-08-20T01:10:20;100234.41;;;20.26;69.16
7200;BME280;3641;49.082;8.200;2022-08-20T01:12:49;100232.53;;;20.15;68.69
7200;BME280;3641;49.082;8.200;2022-08-20T01:15:21;100234.50;;;20.31;67.19
7200;BME280;3641;49.082;8.200;2022-08-20T01:17:50;100237.59;;;20.35;68.47
7200;BME280;3641;49.082;8.200;2022-08-20T01:20:22;100237.78;;;20.28;66.27
7200;BME280;3641;49.082;8.200;2022-08-20T01:22:54;100233.06;;;19.95;71.14
7200;BME280;3641;49.082;8.200;2022-08-20T01:25:45;100231.31;;;20.06;70.79
7200;BME280;3641;49.082;8.200;2022-08-20T01:28:17;100230.44;;;19.88;71.51
7200;BME280;3641;49.082;8.200;2022-08-20T01:30:45;100234.88;;;19.89;69.75
7200;BME280;3641;49.082;8.200;2022-08-20T01:33:11;100240.53;;;20.11;67.09
7200;BME280;3641;49.082;8.200;2022-08-20T01:35:39;100238.94;;;19.99;70.97
7200;BME280;3641;49.082;8.200;2022-08-20T01:38:08;100246.72;;;19.85;69.82
7200;BME280;3641;49.082;8.200;2022-08-20T01:40:54;100240.94;;;19.86;71.35
7200;BME280;3641;49.082;8.200;2022-08-20T01:43:23;100244.31;;;19.88;68.94
7200;BME280;3641;49.082;8.200;2022-08-20T01:45:52;100240.63;;;20.00;71.17
7200;BME280;3641;49.082;8.200;2022-08-20T01:48:20;100245.59;;;19.98;71.68
7200;BME280;3641;49.082;8.200;2022-08-20T01:50:52;100247.69;;;20.07;71.26
7200;BME280;3641;49.082;8.200;2022-08-20T01:53:27;100252.47;;;20.29;66.08
7200;BME280;3641;49.082;8.200;2022-08-20T01:55:59;100259.91;;;20.62;63.99
7200;BME280;3641;49.082;8.200;2022-08-20T01:58:25;100263.13;;;20.54;68.59
7200;BME280;3641;49.082;8.200;2022-08-20T02:00:54;100265.16;;;20.25;68.12
7200;BME280;3641;49.082;8.200;2022-08-20T02:03:20;100267.94;;;20.25;70.21
7200;BME280;3641;49.082;8.200;2022-08-20T02:05:47;100268.00;;;20.13;71.33
7200;BME280;3641;49.082;8.200;2022-08-20T02:08:13;100274.22;;;20.20;70.95
7200;BME280;3641;49.082;8.200;2022-08-20T02:10:40;100274.03;;;20.10;71.30
7200;BME280;3641;49.082;8.200;2022-08-20T02:13:12;100281.47;;;19.92;72.75
7200;BME280;3641;49.082;8.200;2022-08-20T02:15:39;100270.09;;;20.06;72.16
7200;BME280;3641;49.082;8.200;2022-08-20T02:18:08;100272.59;;;19.90;73.03
7200;BME280;3641;49.082;8.200;2022-08-20T02:20:36;100275.13;;;20.26;66.74
7200;BME280;3641;49.082;8.200;2022-08-20T02:23:03;100271.84;;;19.95;72.82
7200;BME280;3641;49.082;8.200;2022-08-20T02:25:33;100271.50;;;20.08;68.67
7200;BME280;3641;49.082;8.200;2022-08-20T02:28:04;100275.81;;;20.33;70.27
7200;BME280;3641;49.082;8.200;2022-08-20T02:30:34;100277.38;;;19.95;71.92
7200;BME280;3641;49.082;8.200;2022-08-20T02:33:05;100274.81;;;19.76;74.42
7200;BME280;3641;49.082;8.200;2022-08-20T02:35:33;100274.56;;;20.41;66.56
7200;BME280;3641;49.082;8.200;2022-08-20T02:38:00;100277.81;;;20.55;65.80
7200;BME280;3641;49.082;8.200;2022-08-20T02:40:28;100272.63;;;20.41;70.69
7200;BME280;3641;49.082;8.200;2022-08-20T02:42:55;100272.19;;;20.32;70.31
7200;BME280;3641;49.082;8.200;2022-08-20T02:45:22;100269.69;;;20.31;71.46
7200;BME280;3641;49.082;8.200;2022-08-20T02:47:50;100268.31;;;20.17;72.16
7200;BME280;3641;49.082;8.200;2022-08-20T02:50:20;100270.94;;;20.40;67.17
7200;BME280;3641;49.082;8.200;2022-08-20T02:52:48;100266.19;;;20.70;65.54
7200;BME280;3641;49.082;8.200;2022-08-20T02:55:14;100272.47;;;20.65;70.05
7200;BME280;3641;49.082;8.200;2022-08-20T02:57:41;100263.03;;;20.66;69.65
7200;BME280;3641;49.082;8.200;2022-08-20T03:00:10;100253.00;;;20.82;65.46
7200;BME280;3641;49.082;8.200;2022-08-20T03:02:37;100258.50;;;20.43;71.17
7200;BME280;3641;49.082;8.200;2022-08-20T03:05:06;100255.41;;;20.22;72.33
7200;BME280;3641;49.082;8.200;2022-08-20T03:07:39;100259.00;;;19.89;74.33
7200;BME280;3641;49.082;8.200;2022-08-20T03:10:06;100257.50;;;20.15;72.79
7200;BME280;3641;49.082;8.200;2022-08-20T03:12:33;100260.31;;;19.86;74.42
7200;BME280;3641;49.082;8.200;2022-08-20T03:15:00;100259.56;;;19.91;73.53
7200;BME280;3641;49.082;8.200;2022-08-20T03:17:26;100255.88;;;20.02;73.30
7200;BME280;3641;49.082;8.200;2022-08-20T03:19:53;100256.38;;;19.82;74.72
7200;BME280;3641;49.082;8.200;2022-08-20T03:22:20;100252.13;;;19.91;71.20
7200;BME280;3641;49.082;8.200;2022-08-20T03:24:47;100251.72;;;20.00;73.54
7200;BME280;3641;49.082;8.200;2022-08-20T03:27:13;100252.53;;;20.34;68.18
7200;BME280;3641;49.082;8.200;2022-08-20T03:29:40;100255.63;;;20.04;73.57
7200;BME280;3641;49.082;8.200;2022-08-20T03:32:06;100255.44;;;19.76;75.39
7200;BME280;3641;49.082;8.200;2022-08-20T03:34:33;100248.50;;;20.08;71.01
7200;BME280;3641;49.082;8.200;2022-08-20T03:36:59;100253.63;;;20.16;69.55
7200;BME280;3641;49.082;8.200;2022-08-20T03:39:28;100246.81;;;19.90;74.53
7200;BME280;3641;49.082;8.200;2022-08-20T03:41:54;100262.94;;;19.93;72.24
7200;BME280;3641;49.082;8.200;2022-08-20T03:44:21;100260.56;;;19.85;74.70
7200;BME280;3641;49.082;8.200;2022-08-20T03:46:47;100258.66;;;20.02;70.11
7200;BME280;3641;49.082;8.200;2022-08-20T03:49:14;100254.31;;;20.06;71.27
7200;BME280;3641;49.082;8.200;2022-08-20T03:51:41;100253.47;;;20.40;67.92
7200;BME280;3641;49.082;8.200;2022-08-20T03:54:07;100258.06;;;20.00;73.64
7200;BME280;3641;49.082;8.200;2022-08-20T03:56:35;100261.03;;;20.10;69.41
7200;BME280;3641;49.082;8.200;2022-08-20T03:59:02;100257.94;;;20.41;67.79
7200;BME280;3641;49.082;8.200;2022-08-20T04:01:28;100262.28;;;20.54;68.73
7200;BME280;3641;49.082;8.200;2022-08-20T04:03:55;100274.47;;;20.53;67.46
7200;BME280;3641;49.082;8.200;2022-08-20T04:06:23;100265.06;;;20.37;72.15
7200;BME280;3641;49.082;8.200;2022-08-20T04:08:49;100272.63;;;20.07;70.24
7200;BME280;3641;49.082;8.200;2022-08-20T04:11:17;100273.84;;;19.83;72.44
7200;BME280;3641;49.082;8.200;2022-08-20T04:13:45;100271.28;;;20.27;68.62
7200;BME280;3641;49.082;8.200;2022-08-20T04:16:12;100283.22;;;20.10;73.24
7200;BME280;3641;49.082;8.200;2022-08-20T04:18:38;100282.53;;;20.37;68.75
7200;BME280;3641;49.082;8.200;2022-08-20T04:21:05;100272.00;;;20.05;72.40
7200;BME280;3641;49.082;8.200;2022-08-20T04:23:31;100273.78;;;19.66;75.83
7200;BME280;3641;49.082;8.200;2022-08-20T04:25:58;100271.84;;;19.66;75.71
7200;BME280;3641;49.082;8.200;2022-08-20T04:28:25;100278.38;;;19.60;76.54
7200;BME280;3641;49.082;8.200;2022-08-20T04:30:55;100278.78;;;19.69;75.69
7200;BME280;3641;49.082;8.200;2022-08-20T04:33:23;100272.06;;;19.76;75.26
7200;BME280;3641;49.082;8.200;2022-08-20T04:35:50;100278.28;;;19.55;75.97
7200;BME280;3641;49.082;8.200;2022-08-20T04:38:18;100276.81;;;19.52;75.85
7200;BME280;3641;49.082;8.200;2022-08-20T04:40:45;100274.00;;;19.76;73.87
7200;BME280;3641;49.082;8.200;2022-08-20T04:43:26;100274.69;;;19.71;75.29
7200;BME280;3641;49.082;8.200;2022-08-20T04:45:57;100278.53;;;19.70;75.30
7200;BME280;3641;49.082;8.200;2022-08-20T04:48:25;100275.94;;;19.92;70.34
7200;BME280;3641;49.082;8.200;2022-08-20T04:50:53;100277.44;;;19.83;72.96
7200;BME280;3641;49.082;8.200;2022-08-20T04:53:22;100280.81;;;19.73;75.48
7200;BME280;3641;49.082;8.200;2022-08-20T04:55:50;100289.06;;;19.97;73.67
7200;BME280;3641;49.082;8.200;2022-08-20T04:58:19;100285.69;;;19.66;73.38
7200;BME280;3641;49.082;8.200;2022-08-20T05:00:47;100289.88;;;19.69;75.73
7200;BME280;3641;49.082;8.200;2022-08-20T05:03:16;100289.97;;;19.86;72.22
7200;BME280;3641;49.082;8.200;2022-08-20T05:05:44;100296.66;;;19.61;76.20
7200;BME280;3641;49.082;8.200;2022-08-20T05:08:11;100298.19;;;19.81;71.40
7200;BME280;3641;49.082;8.200;2022-08-20T05:10:39;100295.97;;;20.11;69.38
7200;BME280;3641;49.082;8.200;2022-08-20T05:13:07;100292.81;;;19.91;70.72
7200;BME280;3641;49.082;8.200;2022-08-20T05:15:34;100290.41;;;20.11;69.53
7200;BME280;3641;49.082;8.200;2022-08-20T05:18:04;100294.88;;;19.55;76.96
7200;BME280;3641;49.082;8.200;2022-08-20T05:20:34;100300.56;;;19.48;75.72
7200;BME280;3641;49.082;8.200;2022-08-20T05:23:05;100292.22;;;19.60;76.08
7200;BME280;3641;49.082;8.200;2022-08-20T05:25:34;100296.41;;;19.34;77.75
7200;BME280;3641;49.082;8.200;2022-08-20T05:28:03;100301.59;;;19.18;78.53
7200;BME280;3641;49.082;8.200;2022-08-20T05:30:34;100299.41;;;19.32;78.14
7200;BME280;3641;49.082;8.200;2022-08-20T05:33:03;100307.91;;;19.42;77.02
7200;BME280;3641;49.082;8.200;2022-08-20T05:35:32;100304.47;;;19.64;73.07
7200;BME280;3641;49.082;8.200;2022-08-20T05:38:01;100315.72;;;19.46;77.34
7200;BME280;3641;49.082;8.200;2022-08-20T05:40:27;100315.25;;;19.49;77.20
7200;BME280;3641;49.082;8.200;2022-08-20T05:42:54;100319.31;;;19.58;77.45
7200;BME280;3641;49.082;8.200;2022-08-20T05:45:21;100323.72;;;19.71;75.80
7200;BME280;3641;49.082;8.200;2022-08-20T05:47:48;100327.72;;;19.63;77.11
7200;BME280;3641;49.082;8.200;2022-08-20T05:50:16;100331.75;;;19.84;75.66
7200;BME280;3641;49.082;8.200;2022-08-20T05:52:43;100318.03;;;20.06;70.82
7200;BME280;3641;49.082;8.200;2022-08-20T05:55:11;100332.31;;;20.15;71.19
7200;BME280;3641;49.082;8.200;2022-08-20T05:57:39;100327.44;;;20.05;72.40
7200;BME280;3641;49.082;8.200;2022-08-20T06:00:09;100324.66;;;20.05;75.30
7200;BME280;3641;49.082;8.200;2022-08-20T06:02:36;100326.66;;;20.22;71.62
7200;BME280;3641;49.082;8.200;2022-08-20T06:05:20;100330.94;;;20.46;70.38
7200;BME280;3641;49.082;8.200;2022-08-20T06:07:46;100326.22;;;20.30;73.93
7200;BME280;3641;49.082;8.200;2022-08-20T06:10:16;100332.69;;;20.36;73.46
7200;BME280;3641;49.082;8.200;2022-08-20T06:12:42;100344.81;;;20.46;71.57
7200;BME280;3641;49.082;8.200;2022-08-20T06:15:10;100336.13;;;20.60;72.14
7200;BME280;3641;49.082;8.200;2022-08-20T06:17:37;100328.09;;;20.58;72.26
7200;BME280;3641;49.082;8.200;2022-08-20T06:20:06;100332.97;;;20.51;72.79
7200;BME280;3641;49.082;8.200;2022-08-20T06:22:33;100334.97;;;20.56;72.01
7200;BME280;3641;49.082;8.200;2022-08-20T06:25:00;100335.88;;;20.61;71.78
7200;BME280;3641;49.082;8.200;2022-08-20T06:27:28;100335.22;;;20.88;68.64
7200;BME280;3641;49.082;8.200;2022-08-20T06:29:54;100335.16;;;20.83;71.00
7200;BME280;3641;49.082;8.200;2022-08-20T06:32:22;100340.28;;;20.91;69.31
7200;BME280;3641;49.082;8.200;2022-08-20T06:34:50;100339.59;;;21.01;68.79
7200;BME280;3641;49.082;8.200;2022-08-20T06:37:19;100335.78;;;21.07;68.40
7200;BME280;3641;49.082;8.200;2022-08-20T06:39:46;100342.28;;;21.13;69.34
7200;BME280;3641;49.082;8.200;2022-08-20T06:42:12;100339.81;;;21.16;68.91
7200;BME280;3641;49.082;8.200;2022-08-20T06:44:40;100348.03;;;21.28;68.08
7200;BME280;3641;49.082;8.200;2022-08-20T06:47:07;100348.88;;;21.29;68.91
7200;BME280;3641;49.082;8.200;2022-08-20T06:49:34;100349.72;;;21.29;68.17
7200;BME280;3641;49.082;8.200;2022-08-20T06:52:02;100345.19;;;21.23;69.30
7200;BME280;3641;49.082;8.200;2022-08-20T06:54:28;100348.16;;;21.38;67.40
7200;BME280;3641;49.082;8.200;2022-08-20T06:56:55;100344.94;;;21.47;67.22
7200;BME280;3641;49.082;8.200;2022-08-20T06:59:22;100349.41;;;21.48;67.08
7200;BME280;3641;49.082;8.200;2022-08-20T07:01:50;100349.50;;;21.53;67.16
7200;BME280;3641;49.082;8.200;2022-08-20T07:04:20;100356.31;;;21.45;67.41
7200;BME280;3641;49.082;8.200;2022-08-20T07:06:47;100364.09;;;21.26;70.08
7200;BME280;3641;49.082;8.200;2022-08-20T07:09:16;100360.84;;;21.12;70.46
7200;BME280;3641;49.082;8.200;2022-08-20T07:11:42;100357.78;;;21.31;68.76
7200;BME280;3641;49.082;8.200;2022-08-20T07:14:09;100364.47;;;21.13;69.92
7200;BME280;3641;49.082;8.200;2022-08-20T07:16:36;100356.16;;;20.96;70.49
7200;BME280;3641;49.082;8.200;2022-08-20T07:19:04;100360.03;;;20.95;71.67
7200;BME280;3641;49.082;8.200;2022-08-20T07:21:32;100369.97;;;21.30;68.53
7200;BME280;3641;49.082;8.200;2022-08-20T07:23:58;100372.00;;;20.78;72.52
7200;BME280;3641;49.082;8.200;2022-08-20T07:26:25;100373.56;;;21.08;69.59
7200;BME280;3641;49.082;8.200;2022-08-20T07:28:52;100378.56;;;21.28;69.39
7200;BME280;3641;49.082;8.200;2022-08-20T07:31:18;100376.81;;;21.22;70.91
7200;BME280;3641;49.082;8.200;2022-08-20T07:34:04;100376.03;;;21.04;72.04
7200;BME280;3641;49.082;8.200;2022-08-20T07:36:31;100376.47;;;21.18;69.51
7200;BME280;3641;49.082;8.200;2022-08-20T07:38:58;100380.63;;;20.99;71.89
7200;BME280;3641;49.082;8.200;2022-08-20T07:41:26;100381.13;;;20.79;73.61
7200;BME280;3641;49.082;8.200;2022-08-20T07:43:52;100387.97;;;20.71;74.23
7200;BME280;3641;49.082;8.200;2022-08-20T07:46:19;100378.53;;;20.55;75.19
7200;BME280;3641;49.082;8.200;2022-08-20T07:48:47;100391.84;;;20.70;74.39
7200;BME280;3641;49.082;8.200;2022-08-20T07:51:18;100386.03;;;20.72;73.70
7200;BME280;3641;49.082;8.200;2022-08-20T07:53:45;100392.16;;;20.74;74.15
7200;BME280;3641;49.082;8.200;2022-08-20T07:56:14;100395.84;;;20.96;71.61
7200;BME280;3641;49.082;8.200;2022-08-20T07:58:43;100384.53;;;20.81;72.81
7200;BME280;3641;49.082;8.200;2022-08-20T08:01:14;100388.03;;;20.93;72.28
7200;BME280;3641;49.082;8.200;2022-08-20T08:03:41;100383.59;;;21.31;69.70
7200;BME280;3641;49.082;8.200;2022-08-20T08:06:08;100388.69;;;21.17;71.52
7200;BME280;3641;49.082;8.200;2022-08-20T08:08:37;100388.72;;;21.39;69.04
7200;BME280;3641;49.082;8.200;2022-08-20T08:11:06;100383.97;;;21.35;69.27
7200;BME280;3641;49.082;8.200;2022-08-20T08:13:34;100389.72;;;21.50;69.18
7200;BME280;3641;49.082;8.200;2022-08-20T08:16:05;100394.53;;;21.38;69.70
7200;BME280;3641;49.082;8.200;2022-08-20T08:18:34;100392.56;;;21.55;68.49
7200;BME280;3641;49.082;8.200;2022-08-20T08:21:03;100394.09;;;21.46;68.15
7200;BME280;3641;49.082;8.200;2022-08-20T08:23:30;100391.88;;;21.65;67.60
7200;BME280;3641;49.082;8.200;2022-08-20T08:26:00;100397.81;;;21.74;67.54
7200;BME280;3641;49.082;8.200;2022-08-20T08:28:27;100396.47;;;21.76;67.58
7200;BME280;3641;49.082;8.200;2022-08-20T08:30:55;100399.31;;;21.59;68.28
7200;BME280;3641;49.082;8.200;2022-08-20T08:33:23;100396.72;;;21.75;67.36
7200;BME280;3641;49.082;8.200;2022-08-20T08:35:53;100396.00;;;21.85;67.28
7200;BME280;3641;49.082;8.200;2022-08-20T08:38:20;100402.16;;;21.87;66.81
7200;BME280;3641;49.082;8.200;2022-08-20T08:40:48;100402.97;;;21.87;66.83
7200;BME280;3641;49.082;8.200;2022-08-20T08:43:17;100399.16;;;21.93;66.67
7200;BME280;3641;49.082;8.200;2022-08-20T08:45:48;100406.66;;;21.71;67.36
7200;BME280;3641;49.082;8.200;2022-08-20T08:48:18;100403.44;;;21.79;67.35
7200;BME280;3641;49.082;8.200;2022-08-20T08:50:47;100399.06;;;21.83;66.91
7200;BME280;3641;49.082;8.200;2022-08-20T08:53:18;100395.91;;;22.02;66.03
7200;BME280;3641;49.082;8.200;2022-08-20T08:55:46;100395.41;;;22.05;66.01
7200;BME280;3641;49.082;8.200;2022-08-20T08:58:13;100403.34;;;22.18;66.15
7200;BME280;3641;49.082;8.200;2022-08-20T09:00:41;100402.31;;;22.24;65.99
7200;BME280;3641;49.082;8.200;2022-08-20T09:03:09;100396.09;;;22.39;65.48
7200;BME280;3641;49.082;8.200;2022-08-20T09:05:41;100403.78;;;22.32;65.29
7200;BME280;3641;49.082;8.200;2022-08-20T09:08:12;100396.81;;;22.29;65.75
7200;BME280;3641;49.082;8.200;2022-08-20T09:10:40;100405.16;;;22.29;65.88
7200;BME280;3641;49.082;8.200;2022-08-20T09:13:09;100402.47;;;22.40;65.99
7200;BME280;3641;49.082;8.200;2022-08-20T09:15:36;100400.56;;;22.40;65.47
7200;BME280;3641;49.082;8.200;2022-08-20T09:18:04;100401.38;;;22.41;65.34
7200;BME280;3641;49.082;8.200;2022-08-20T09:20:30;100405.53;;;22.16;66.34
7200;BME280;3641;49.082;8.200;2022-08-20T09:22:57;100405.91;;;22.47;65.49
7200;BME280;3641;49.082;8.200;2022-08-20T09:25:23;100397.34;;;22.54;64.93
7200;BME280;3641;49.082;8.200;2022-08-20T09:27:50;100402.16;;;22.63;64.51
7200;BME280;3641;49.082;8.200;2022-08-20T09:30:17;100393.56;;;22.70;64.22
7200;BME280;3641;49.082;8.200;2022-08-20T09:32:43;100399.69;;;22.40;64.29
7200;BME280;3641;49.082;8.200;2022-08-20T09:35:11;100393.50;;;22.60;64.31
7200;BME280;3641;49.082;8.200;2022-08-20T09:37:38;100392.88;;;22.53;64.42
7200;BME280;3641;49.082;8.200;2022-08-20T09:40:06;100388.69;;;22.50;64.70
7200;BME280;3641;49.082;8.200;2022-08-20T09:42:35;100392.06;;;22.57;63.92
7200;BME280;3641;49.082;8.200;2022-08-20T09:45:03;100388.72;;;22.55;64.11
7200;BME280;3641;49.082;8.200;2022-08-20T09:47:29;100383.38;;;22.48;64.50
7200;BME280;3641;49.082;8.200;2022-08-20T09:49:56;100382.41;;;22.65;63.71
7200;BME280;3641;49.082;8.200;2022-08-20T09:52:26;100376.13;;;22.80;63.00
7200;BME280;3641;49.082;8.200;2022-08-20T09:54:56;100371.66;;;22.74;62.61
7200;BME280;3641;49.082;8.200;2022-08-20T09:57:24;100374.00;;;22.92;63.07
7200;BME280;3641;49.082;8.200;2022-08-20T09:59:55;100374.56;;;22.94;62.02
7200;BME280;3641;49.082;8.200;2022-08-20T10:02:23;100372.88;;;22.88;61.64
7200;BME280;3641;49.082;8.200;2022-08-20T10:04:50;100363.47;;;22.99;62.02
7200;BME280;3641;49.082;8.200;2022-08-20T10:07:17;100367.44;;;23.09;62.57
7200;BME280;3641;49.082;8.200;2022-08-20T10:09:45;100366.03;;;23.06;60.84
7200;BME280;3641;49.082;8.200;2022-08-20T10:12:11;100366.16;;;23.21;61.30
7200;BME280;3641;49.082;8.200;2022-08-20T10:14:38;100363.97;;;23.29;59.37
7200;BME280;3641;49.082;8.200;2022-08-20T10:17:04;100370.69;;;23.38;57.70
7200;BME280;3641;49.082;8.200;2022-08-20T10:19:31;100357.97;;;23.52;58.01
7200;BME280;3641;49.082;8.200;2022-08-20T10:21:58;100378.78;;;23.39;57.91
7200;BME280;3641;49.082;8.200;2022-08-20T10:24:25;100370.94;;;23.31;57.46
7200;BME280;3641;49.082;8.200;2022-08-20T10:26:56;100367.34;;;23.36;57.10
7200;BME280;3641;49.082;8.200;2022-08-20T10:29:22;100368.22;;;23.47;56.97
7200;BME280;3641;49.082;8.200;2022-08-20T10:31:49;100359.31;;;23.50;57.19
7200;BME280;3641;49.082;8.200;2022-08-20T10:34:16;100366.69;;;23.76;55.21
7200;BME280;3641;49.082;8.200;2022-08-20T10:36:42;100368.50;;;24.03;55.23
7200;BME280;3641;49.082;8.200;2022-08-20T10:39:09;100363.53;;;24.52;53.64
7200;BME280;3641;49.082;8.200;2022-08-20T10:41:36;100360.44;;;24.38;53.64
7200;BME280;3641;49.082;8.200;2022-08-20T10:44:03;100364.09;;;24.38;53.00
7200;BME280;3641;49.082;8.200;2022-08-20T10:46:30;100360.50;;;24.58;53.11
7200;BME280;3641;49.082;8.200;2022-08-20T10:48:57;100367.16;;;24.37;54.24
7200;BME280;3641;49.082;8.200;2022-08-20T10:51:23;100357.06;;;24.10;54.04
7200;BME280;3641;49.082;8.200;2022-08-20T10:53:50;100351.22;;;24.22;56.23
7200;BME280;3641;49.082;8.200;2022-08-20T10:56:16;100348.47;;;24.53;52.46
7200;BME280;3641;49.082;8.200;2022-08-20T10:58:43;100353.78;;;24.85;52.13
7200;BME280;3641;49.082;8.200;2022-08-20T11:01:10;100351.00;;;24.80;53.00
7200;BME280;3641;49.082;8.200;2022-08-20T11:03:37;100351.00;;;24.70;52.70
7200;BME280;3641;49.082;8.200;2022-08-20T11:06:03;100348.22;;;24.85;54.47
7200;BME280;3641;49.082;8.200;2022-08-20T11:08:30;100348.47;;;24.89;54.09
7200;BME280;3641;49.082;8.200;2022-08-20T11:10:57;100350.97;;;25.11;51.72
7200;BME280;3641;49.082;8.200;2022-08-20T11:13:23;100348.72;;;25.13;53.11
7200;BME280;3641;49.082;8.200;2022-08-20T11:15:49;100353.44;;;25.38;50.76
7200;BME280;3641;49.082;8.200;2022-08-20T11:18:17;100356.63;;;25.76;51.46
7200;BME280;3641;49.082;8.200;2022-08-20T11:20:44;100352.41;;;25.84;49.12
7200;BME280;3641;49.082;8.200;2022-08-20T11:23:10;100359.44;;;25.76;49.34
7200;BME280;3641;49.082;8.200;2022-08-20T11:25:37;100353.28;;;25.79;49.67
7200;BME280;3641;49.082;8.200;2022-08-20T11:28:04;100355.75;;;25.86;47.58
7200;BME280;3641;49.082;8.200;2022-08-20T11:30:34;100353.84;;;25.76;50.84
7200;BME280;3641;49.082;8.200;2022-08-20T11:33:01;100358.06;;;25.68;49.73
7200;BME280;3641;49.082;8.200;2022-08-20T11:35:32;100345.25;;;25.57;48.15
7200;BME280;3641;49.082;8.200;2022-08-20T11:37:59;100349.72;;;25.58;50.64
7200;BME280;3641;49.082;8.200;2022-08-20T11:40:26;100350.38;;;25.34;52.91
7200;BME280;3641;49.082;8.200;2022-08-20T11:42:54;100336.72;;;25.12;54.01
7200;BME280;3641;49.082;8.200;2022-08-20T11:45:20;100351.81;;;25.01;51.11
7200;BME280;3641;49.082;8.200;2022-08-20T11:47:47;100342.59;;;24.95;52.85
7200;BME280;3641;49.082;8.200;2022-08-20T11:50:15;100341.16;;;25.18;51.64
7200;BME280;3641;49.082;8.200;2022-08-20T11:52:44;100337.50;;;25.44;50.99
7200;BME280;3641;49.082;8.200;2022-08-20T11:55:12;100338.88;;;25.51;49.03
7200;BME280;3641;49.082;8.200;2022-08-20T11:57:41;100332.53;;;25.85;49.79
7200;BME280;3641;49.082;8.200;2022-08-20T12:00:11;100334.69;;;26.04;48.57
7200;BME280;3641;49.082;8.200;2022-08-20T12:02:39;100332.16;;;26.07;48.87
7200;BME280;3641;49.082;8.200;2022-08-20T12:05:07;100336.31;;;26.15;47.34
7200;BME280;3641;49.082;8.200;2022-08-20T12:07:33;100326.78;;;26.16;47.17
7200;BME280;3641;49.082;8.200;2022-08-20T12:10:02;100326.88;;;26.40;42.54
7200;BME280;3641;49.082;8.200;2022-08-20T12:12:30;100340.09;;;26.35;42.92
7200;BME280;3641;49.082;8.200;2022-08-20T12:14:57;100326.78;;;26.16;42.95
7200;BME280;3641;49.082;8.200;2022-08-20T12:17:25;100316.78;;;26.44;47.07
7200;BME280;3641;49.082;8.200;2022-08-20T12:19:54;100327.09;;;26.49;45.34
7200;BME280;3641;49.082;8.200;2022-08-20T12:22:22;100321.13;;;26.61;43.44
7200;BME280;3641;49.082;8.200;2022-08-20T12:24:48;100317.69;;;25.90;46.35
7200;BME280;3641;49.082;8.200;2022-08-20T12:27:19;100321.59;;;25.89;45.16
7200;BME280;3641;49.082;8.200;2022-08-20T12:29:48;100316.44;;;26.17;44.01
7200;BME280;3641;49.082;8.200;2022-08-20T12:32:17;100316.44;;;26.51;43.25
7200;BME280;3641;49.082;8.200;2022-08-20T12:34:44;100309.47;;;26.83;42.74
7200;BME280;3641;49.082;8.200;2022-08-20T12:37:12;100299.88;;;26.60;42.03
7200;BME280;3641;49.082;8.200;2022-08-20T12:39:41;100303.47;;;26.31;42.68
7200;BME280;3641;49.082;8.200;2022-08-20T12:42:08;100305.94;;;26.38;44.06
7200;BME280;3641;49.082;8.200;2022-08-20T12:44:37;100288.75;;;26.50;41.34
7200;BME280;3641;49.082;8.200;2022-08-20T12:47:05;100288.28;;;26.72;40.64
7200;BME280;3641;49.082;8.200;2022-08-20T12:49:32;100294.44;;;26.98;39.62
7200;BME280;3641;49.082;8.200;2022-08-20T12:51:59;100306.66;;;26.83;43.06
7200;BME280;3641;49.082;8.200;2022-08-20T12:54:25;100295.06;;;26.66;39.78
7200;BME280;3641;49.082;8.200;2022-08-20T12:56:52;100295.22;;;26.45;44.03
7200;BME280;3641;49.082;8.200;2022-08-20T12:59:21;100291.25;;;26.51;40.79
7200;BME280;3641;49.082;8.200;2022-08-20T13:01:49;100298.06;;;26.74;38.36
7200;BME280;3641;49.082;8.200;2022-08-20T13:04:16;100290.97;;;26.82;39.78
7200;BME280;3641;49.082;8.200;2022-08-20T13:06:43;100287.22;;;26.62;39.41
7200;BME280;3641;49.082;8.200;2022-08-20T13:09:09;100289.19;;;26.62;44.41
7200;BME280;3641;49.082;8.200;2022-08-20T13:11:36;100297.66;;;26.57;41.36
7200;BME280;3641;49.082;8.200;2022-08-20T13:14:03;100295.44;;;26.83;38.20